createdAt,value
2023-04-28T00:02:18.375Z,3.95
2023-04-28T00:04:45.831Z,3.92
2023-04-28T00:07:13.399Z,4.40
2023-04-28T00:09:40.509Z,4.45
2023-04-28T00:12:07.692Z,4.20
2023-04-28T00:14:34.806Z,4.13
2023-04-28T00:17:03.261Z,4.13
2023-04-28T00:19:30.468Z,3.78
2023-04-28T00:21:57.534Z,4.40
2023-04-28T00:24:24.723Z,3.95
2023-04-28T00:26:52.369Z,4.13
2023-04-28T00:29:19.534Z,5.10
2023-04-28T00:31:46.681Z,4.30
2023-04-28T00:34:15.281Z,4.40
2023-04-28T00:36:42.644Z,4.25
2023-04-28T00:39:10.151Z,4.55
2023-04-28T00:41:37.375Z,4.50
2023-04-28T00:44:04.615Z,4.38
2023-04-28T00:46:34.737Z,3.85
2023-04-28T00:49:01.930Z,4.00
2023-04-28T00:51:29.163Z,4.38
2023-04-28T00:53:57.391Z,4.03
2023-04-28T00:56:24.566Z,3.95
2023-04-28T00:58:51.715Z,4.18
2023-04-28T01:01:19.234Z,4.35
2023-04-28T01:03:46.591Z,4.40
2023-04-28T01:06:14.698Z,4.22
2023-04-28T01:08:42.556Z,4.38
2023-04-28T01:11:14.016Z,4.97
2023-04-28T01:13:41.574Z,4.10
2023-04-28T01:16:08.705Z,4.63
2023-04-28T01:18:35.989Z,4.60
2023-04-28T01:21:04.440Z,4.38
2023-04-28T01:23:31.825Z,4.40
2023-04-28T01:25:58.954Z,4.10
2023-04-28T01:28:26.208Z,4.10
2023-04-28T01:30:53.318Z,3.92
2023-04-28T01:33:20.540Z,4.18
2023-04-28T01:35:47.687Z,4.15
2023-04-28T01:38:14.799Z,4.15
2023-04-28T01:40:43.195Z,3.85
2023-04-28T01:43:10.321Z,4.43
2023-04-28T01:45:37.437Z,4.32
2023-04-28T01:48:04.668Z,4.35
2023-04-28T01:50:31.837Z,3.95
2023-04-28T01:52:58.906Z,4.35
2023-04-28T01:55:26.360Z,4.32
2023-04-28T01:57:53.460Z,4.60
2023-04-28T02:00:20.714Z,4.90
2023-04-28T02:02:47.892Z,5.05
2023-04-28T02:05:15.185Z,4.57
2023-04-28T02:07:42.327Z,4.90
2023-04-28T02:10:09.671Z,5.35
2023-04-28T02:12:36.819Z,4.72
2023-04-28T02:15:03.935Z,5.30
2023-04-28T02:17:31.385Z,5.13
2023-04-28T02:19:58.587Z,5.13
2023-04-28T02:22:25.743Z,4.95
2023-04-28T02:24:52.941Z,4.82
2023-04-28T02:27:20.761Z,4.80
2023-04-28T02:29:47.823Z,5.03
2023-04-28T02:32:15.015Z,4.57
2023-04-28T02:34:42.187Z,4.55
2023-04-28T02:37:09.354Z,4.80
2023-04-28T02:39:36.594Z,4.80
2023-04-28T02:42:05.460Z,4.47
2023-04-28T02:44:32.571Z,4.10
2023-04-28T02:47:00.676Z,4.32
2023-04-28T02:49:27.982Z,4.95
2023-04-28T02:51:55.151Z,4.38
2023-04-28T02:54:27.691Z,5.43
2023-04-28T02:56:55.571Z,5.30
2023-04-28T02:59:23.103Z,5.50
2023-04-28T03:01:50.557Z,5.18
2023-04-28T03:04:18.279Z,5.57
2023-04-28T03:06:45.732Z,4.78
2023-04-28T03:09:13.173Z,4.38
2023-04-28T03:11:41.359Z,4.30
2023-04-28T03:14:08.480Z,4.60
2023-04-28T03:16:36.013Z,5.30
2023-04-28T03:19:03.460Z,3.95
2023-04-28T03:21:30.683Z,4.38
2023-04-28T03:23:57.843Z,4.15
2023-04-28T03:26:24.958Z,4.80
2023-04-28T03:28:52.124Z,4.68
2023-04-28T03:31:19.287Z,4.30
2023-04-28T03:33:47.157Z,4.32
2023-04-28T03:36:14.333Z,4.72
2023-04-28T03:38:41.584Z,4.88
2023-04-28T03:41:08.696Z,4.32
2023-04-28T03:43:37.328Z,4.43
2023-04-28T03:46:05.400Z,4.57
2023-04-28T03:48:32.587Z,4.10
2023-04-28T03:50:59.791Z,4.63
2023-04-28T03:53:27.012Z,4.47
2023-04-28T03:55:54.137Z,5.18
2023-04-28T03:58:28.058Z,4.63
2023-04-28T04:00:55.325Z,5.00
2023-04-28T04:03:26.352Z,5.60
2023-04-28T04:05:55.113Z,7.60
2023-04-28T04:08:22.402Z,6.28
2023-04-28T04:10:49.603Z,4.78
2023-04-28T04:13:16.719Z,10.13
2023-04-28T04:15:43.836Z,5.68
2023-04-28T04:18:11.316Z,5.18
2023-04-28T04:20:38.580Z,5.47
2023-04-28T04:23:05.741Z,4.78
2023-04-28T04:25:33.086Z,6.10
2023-04-28T04:28:00.562Z,5.90
2023-04-28T04:30:27.960Z,5.95
2023-04-28T04:32:55.194Z,4.90
2023-04-28T04:35:22.598Z,5.38
2023-04-28T04:37:49.793Z,4.88
2023-04-28T04:40:17.020Z,5.30
2023-04-28T04:42:44.179Z,5.18
2023-04-28T04:45:11.418Z,4.75
2023-04-28T04:47:38.796Z,4.80
2023-04-28T04:50:06.371Z,4.60
2023-04-28T04:52:33.531Z,5.32
2023-04-28T04:55:00.911Z,5.00
2023-04-28T04:57:28.008Z,5.10
2023-04-28T04:59:55.434Z,5.25
2023-04-28T05:02:22.708Z,5.53
2023-04-28T05:04:50.002Z,5.22
2023-04-28T05:07:17.211Z,6.18
2023-04-28T05:09:44.382Z,11.50
2023-04-28T05:12:11.715Z,12.07
2023-04-28T05:14:38.908Z,9.70
2023-04-28T05:17:06.221Z,18.95
2023-04-28T05:19:33.393Z,12.27
2023-04-28T05:22:01.735Z,6.97
2023-04-28T05:24:28.901Z,6.80
2023-04-28T05:26:58.954Z,5.60
2023-04-28T05:29:26.088Z,4.88
2023-04-28T05:31:53.227Z,6.03
2023-04-28T05:34:20.472Z,5.50
2023-04-28T05:36:47.661Z,5.68
2023-04-28T05:39:14.864Z,6.15
2023-04-28T05:41:42.148Z,6.57
2023-04-28T05:44:09.372Z,5.75
2023-04-28T05:46:37.273Z,5.28
2023-04-28T05:49:04.529Z,6.13
2023-04-28T05:51:31.698Z,6.47
2023-04-28T05:53:58.800Z,7.00
2023-04-28T05:56:25.940Z,5.75
2023-04-28T05:58:53.296Z,6.75
2023-04-28T06:01:20.433Z,6.38
2023-04-28T06:03:48.025Z,6.90
2023-04-28T06:06:15.451Z,8.05
2023-04-28T06:08:42.606Z,6.20
2023-04-28T06:11:09.686Z,6.30
2023-04-28T06:13:36.996Z,5.45
2023-04-28T06:16:04.309Z,5.00
2023-04-28T06:18:34.411Z,5.10
2023-04-28T06:21:01.650Z,4.15
2023-04-28T06:23:28.938Z,4.80
2023-04-28T06:25:56.032Z,4.53
2023-04-28T06:28:23.198Z,5.03
2023-04-28T06:30:50.348Z,5.82
2023-04-28T06:33:17.495Z,4.80
2023-04-28T06:35:44.679Z,5.18
2023-04-28T06:38:11.857Z,5.00
2023-04-28T06:40:40.755Z,4.70
2023-04-28T06:43:07.961Z,4.90
2023-04-28T06:45:35.076Z,4.90
2023-04-28T06:48:02.364Z,5.63
2023-04-28T06:50:29.524Z,5.50
2023-04-28T06:52:58.687Z,5.95
2023-04-28T06:55:26.004Z,6.72
2023-04-28T06:57:53.266Z,7.10
2023-04-28T07:00:20.900Z,9.50
2023-04-28T07:02:48.370Z,8.05
2023-04-28T07:05:16.673Z,8.90
2023-04-28T07:07:44.031Z,10.85
2023-04-28T07:10:11.560Z,9.73
2023-04-28T07:12:38.663Z,12.30
2023-04-28T07:15:06.539Z,12.30
2023-04-28T07:17:33.780Z,9.38
2023-04-28T07:20:01.089Z,11.70
2023-04-28T07:22:28.327Z,9.80
2023-04-28T07:24:55.465Z,9.32
2023-04-28T07:27:23.211Z,9.43
2023-04-28T07:29:50.560Z,9.35
2023-04-28T07:32:18.039Z,8.52
2023-04-28T07:34:45.351Z,9.43
2023-04-28T07:37:12.724Z,9.75
2023-04-28T07:39:40.583Z,9.02
2023-04-28T07:42:08.031Z,8.93
2023-04-28T07:44:35.878Z,9.13
2023-04-28T07:47:03.631Z,9.23
2023-04-28T07:49:31.417Z,9.60
2023-04-28T07:51:58.590Z,11.55
2023-04-28T07:54:26.152Z,9.60
2023-04-28T07:56:53.434Z,9.27
2023-04-28T07:59:20.522Z,9.35
2023-04-28T08:01:47.761Z,8.07
2023-04-28T08:04:15.326Z,8.40
2023-04-28T08:06:42.676Z,8.48
2023-04-28T08:09:09.881Z,9.07
2023-04-28T08:11:37.091Z,10.27
2023-04-28T08:14:04.388Z,10.40
2023-04-28T08:16:32.098Z,8.98
2023-04-28T08:19:00.316Z,9.23
2023-04-28T08:21:27.773Z,10.77
2023-04-28T08:23:54.867Z,10.02
2023-04-28T08:26:21.976Z,8.68
2023-04-28T08:28:49.130Z,16.20
2023-04-28T08:31:16.508Z,14.73
2023-04-28T08:33:44.825Z,10.93
2023-04-28T08:36:12.223Z,12.35
2023-04-28T08:38:39.307Z,11.25
2023-04-28T08:41:06.576Z,10.20
2023-04-28T08:43:37.261Z,10.05
2023-04-28T08:46:07.138Z,10.15
2023-04-28T08:48:41.152Z,7.85
2023-04-28T08:51:09.190Z,7.43
2023-04-28T08:54:11.274Z,7.32
2023-04-28T08:56:32.997Z,8.65
2023-04-28T08:59:04.661Z,8.02
2023-04-28T09:01:32.668Z,8.98
2023-04-28T09:04:03.932Z,9.93
2023-04-28T09:06:38.366Z,9.00
2023-04-28T09:09:21.159Z,9.73
2023-04-28T09:11:51.625Z,6.43
2023-04-28T09:14:19.053Z,7.22
2023-04-28T09:16:46.541Z,7.03
2023-04-28T09:19:13.788Z,7.22
2023-04-28T09:21:48.494Z,6.70
2023-04-28T09:24:31.817Z,6.25
2023-04-28T09:26:59.428Z,6.32
2023-04-28T09:29:26.647Z,5.70
2023-04-28T09:31:54.773Z,5.78
2023-04-28T09:34:22.345Z,5.30
2023-04-28T09:36:49.628Z,5.10
2023-04-28T09:39:29.097Z,4.20
2023-04-28T09:41:56.630Z,5.03
2023-04-28T09:44:23.801Z,4.93
2023-04-28T09:46:50.983Z,5.45
2023-04-28T09:49:18.478Z,5.43
2023-04-28T09:51:46.172Z,5.00
2023-04-28T09:54:13.650Z,6.55
2023-04-28T09:56:41.718Z,6.90
2023-04-28T09:59:08.821Z,8.70
2023-04-28T10:01:40.611Z,7.78
2023-04-28T10:04:08.356Z,9.90
2023-04-28T10:06:39.227Z,8.40
2023-04-28T10:09:06.646Z,8.82
2023-04-28T10:11:34.704Z,9.43
2023-04-28T10:14:02.411Z,9.02
2023-04-28T10:16:33.140Z,10.35
2023-04-28T10:19:01.234Z,10.57
2023-04-28T10:21:29.962Z,9.70
2023-04-28T10:24:03.229Z,11.93
2023-04-28T10:26:50.620Z,11.25
2023-04-28T10:29:18.095Z,14.07
2023-04-28T10:32:03.959Z,13.38
2023-04-28T10:34:31.504Z,13.45
2023-04-28T10:36:59.450Z,14.38
2023-04-28T10:39:26.990Z,13.23
2023-04-28T10:41:54.109Z,13.73
2023-04-28T10:44:33.189Z,12.93
2023-04-28T10:47:04.487Z,12.63
2023-04-28T10:49:50.855Z,13.20
2023-04-28T10:52:46.920Z,13.18
2023-04-28T10:55:33.623Z,12.20
2023-04-28T10:58:16.280Z,11.05
2023-04-28T11:00:45.294Z,9.45
2023-04-28T11:03:31.814Z,9.27
2023-04-28T11:06:19.126Z,9.20
2023-04-28T11:08:46.276Z,8.90
2023-04-28T11:11:17.427Z,7.35
2023-04-28T11:13:47.085Z,7.82
2023-04-28T11:16:18.532Z,6.50
2023-04-28T11:18:48.973Z,6.30
2023-04-28T11:21:16.771Z,6.30
2023-04-28T11:23:44.353Z,6.03
2023-04-28T11:26:11.633Z,6.10
2023-04-28T11:28:47.653Z,5.68
2023-04-28T11:31:19.149Z,5.60
2023-04-28T11:33:47.433Z,5.57
2023-04-28T11:36:28.108Z,5.07
2023-04-28T11:38:56.823Z,4.80
2023-04-28T11:41:24.299Z,3.85
2023-04-28T11:43:51.738Z,4.15
2023-04-28T11:46:19.910Z,4.43
2023-04-28T11:48:47.225Z,4.50
2023-04-28T11:51:32.994Z,4.70
2023-04-28T11:54:01.056Z,4.50
2023-04-28T11:56:28.570Z,4.30
2023-04-28T11:59:05.727Z,4.35
2023-04-28T12:01:34.066Z,3.60
2023-04-28T12:04:01.499Z,3.40
2023-04-28T12:06:28.947Z,3.78
2023-04-28T12:08:57.496Z,4.03
2023-04-28T12:11:25.751Z,4.57
2023-04-28T12:14:06.254Z,4.40
2023-04-28T12:16:47.345Z,4.78
2023-04-28T12:19:16.009Z,5.15
2023-04-28T12:21:43.684Z,3.90
2023-04-28T12:24:14.867Z,4.50
2023-04-28T12:26:42.636Z,4.05
2023-04-28T12:29:13.745Z,3.10
2023-04-28T12:31:52.017Z,3.22
2023-04-28T12:34:19.494Z,2.90
2023-04-28T12:36:46.722Z,3.33
2023-04-28T12:39:17.328Z,2.90
2023-04-28T12:41:44.649Z,3.25
2023-04-28T12:44:11.765Z,2.67
2023-04-28T12:46:38.987Z,3.10
2023-04-28T12:49:06.307Z,2.85
2023-04-28T12:51:36.526Z,2.70
2023-04-28T12:54:04.935Z,3.78
2023-04-28T12:56:32.086Z,3.13
2023-04-28T12:58:59.178Z,3.20
2023-04-28T13:01:27.432Z,3.45
2023-04-28T13:03:54.739Z,2.80
2023-04-28T13:06:22.110Z,1.92
2023-04-28T13:08:49.810Z,1.95
2023-04-28T13:11:22.677Z,1.48
2023-04-28T13:13:50.304Z,1.30
2023-04-28T13:16:17.702Z,1.63
2023-04-28T13:18:44.964Z,2.60
2023-04-28T13:21:12.293Z,2.35
2023-04-28T13:23:39.641Z,3.50
2023-04-28T13:26:06.780Z,1.25
2023-04-28T13:28:34.123Z,2.10
2023-04-28T13:31:01.185Z,1.88
2023-04-28T13:33:31.234Z,1.65
2023-04-28T13:35:59.365Z,1.08
2023-04-28T13:38:26.802Z,2.00
2023-04-28T13:40:54.271Z,2.40
2023-04-28T13:43:21.431Z,2.05
2023-04-28T13:45:48.686Z,1.73
2023-04-28T13:48:16.152Z,1.50
2023-04-28T13:50:43.303Z,1.10
2023-04-28T13:53:11.045Z,1.33
2023-04-28T13:55:38.277Z,1.50
2023-04-28T13:58:06.711Z,1.90
2023-04-28T14:00:37.762Z,3.90
2023-04-28T14:03:05.020Z,1.30
2023-04-28T14:05:39.081Z,1.50
2023-04-28T14:08:20.636Z,0.90
2023-04-28T14:10:48.338Z,0.90
2023-04-28T14:13:15.528Z,1.50
2023-04-28T14:15:54.639Z,1.13
2023-04-28T14:18:25.556Z,1.17
2023-04-28T14:20:54.193Z,1.25
2023-04-28T14:23:21.573Z,1.20
2023-04-28T14:25:48.897Z,1.80
2023-04-28T14:28:16.244Z,1.60
2023-04-28T14:30:44.076Z,1.45
2023-04-28T14:33:11.381Z,1.30
2023-04-28T14:35:38.679Z,1.20
2023-04-28T14:38:05.860Z,1.75
2023-04-28T14:40:33.314Z,1.42
2023-04-28T14:43:00.459Z,1.52
2023-04-28T14:45:27.814Z,0.90
2023-04-28T14:47:55.075Z,1.23
2023-04-28T14:50:22.321Z,1.20
2023-04-28T14:52:49.700Z,1.00
2023-04-28T14:55:16.791Z,1.20
2023-04-28T14:57:43.969Z,1.38
2023-04-28T15:00:11.380Z,1.40
2023-04-28T15:02:43.399Z,2.50
2023-04-28T15:05:11.960Z,1.20
2023-04-28T15:07:39.118Z,1.20
2023-04-28T15:10:06.746Z,1.23
2023-04-28T15:12:34.471Z,1.52
2023-04-28T15:15:01.837Z,2.30
2023-04-28T15:17:29.061Z,2.03
2023-04-28T15:19:56.270Z,2.50
2023-04-28T15:22:23.498Z,2.08
2023-04-28T15:25:05.764Z,2.30
2023-04-28T15:27:33.966Z,2.55
2023-04-28T15:30:01.876Z,2.30
2023-04-28T15:32:31.573Z,3.20
2023-04-28T15:34:58.765Z,3.97
2023-04-28T15:37:38.141Z,3.30
2023-04-28T15:40:09.250Z,2.22
2023-04-28T15:42:37.550Z,1.85
2023-04-28T15:45:05.121Z,1.70
2023-04-28T15:47:33.185Z,2.47
2023-04-28T15:50:00.440Z,1.55
2023-04-28T15:52:27.839Z,1.65
2023-04-28T15:54:56.167Z,2.17
2023-04-28T15:57:24.008Z,1.77
2023-04-28T15:59:51.747Z,2.00
2023-04-28T16:02:19.319Z,2.20
2023-04-28T16:04:46.876Z,2.20
2023-04-28T16:07:14.284Z,1.70
2023-04-28T16:09:41.487Z,2.00
2023-04-28T16:12:08.850Z,2.20
2023-04-28T16:14:37.464Z,1.90
2023-04-28T16:17:04.917Z,2.47
2023-04-28T16:19:32.107Z,2.30
2023-04-28T16:21:59.324Z,2.58
2023-04-28T16:24:26.977Z,2.78
2023-04-28T16:26:54.081Z,2.60
2023-04-28T16:29:22.306Z,2.10
2023-04-28T16:31:49.450Z,3.38
2023-04-28T16:34:17.047Z,4.90
2023-04-28T16:36:44.140Z,52.38
2023-04-28T16:39:11.609Z,28.60
2023-04-28T16:41:38.724Z,7.32
2023-04-28T16:44:05.956Z,5.82
2023-04-28T16:46:33.265Z,3.53
2023-04-28T16:49:00.624Z,11.90
2023-04-28T16:51:28.335Z,6.72
2023-04-28T16:53:55.463Z,6.85
2023-04-28T16:56:22.538Z,3.55
2023-04-28T16:58:49.687Z,4.18
2023-04-28T17:01:17.048Z,2.70
2023-04-28T17:03:44.470Z,2.33
2023-04-28T17:06:12.153Z,1.20
2023-04-28T17:08:40.182Z,5.43
2023-04-28T17:11:07.510Z,3.08
2023-04-28T17:13:35.224Z,1.67
2023-04-28T17:16:04.040Z,1.40
2023-04-28T17:18:31.283Z,1.45
2023-04-28T17:20:58.702Z,1.10
2023-04-28T17:23:27.755Z,2.53
2023-04-28T17:25:55.838Z,2.47
2023-04-28T17:28:25.206Z,4.60
2023-04-28T17:30:52.885Z,5.40
2023-04-28T17:33:19.992Z,4.38
2023-04-28T17:35:47.121Z,5.00
2023-04-28T17:38:14.278Z,3.70
2023-04-28T17:40:41.428Z,3.67
2023-04-28T17:43:08.563Z,11.23
2023-04-28T17:45:35.828Z,5.75
2023-04-28T17:48:03.643Z,5.72
2023-04-28T17:50:30.979Z,5.00
2023-04-28T17:52:58.163Z,4.15
2023-04-28T17:55:26.273Z,3.97
2023-04-28T17:57:53.426Z,5.95
2023-04-28T18:00:23.496Z,1.95
2023-04-28T18:02:52.632Z,4.32
2023-04-28T18:05:20.484Z,2.80
2023-04-28T18:07:47.586Z,1.40
2023-04-28T18:10:15.253Z,3.35
2023-04-28T18:12:42.399Z,2.20
2023-04-28T18:15:09.738Z,2.40
2023-04-28T18:17:36.933Z,2.90
2023-04-28T18:20:06.905Z,2.55
2023-04-28T18:22:34.164Z,3.17
2023-04-28T18:25:01.685Z,3.92
2023-04-28T18:27:28.809Z,4.00
2023-04-28T18:29:56.034Z,4.50
2023-04-28T18:32:23.221Z,4.15
2023-04-28T18:34:50.597Z,4.93
2023-04-28T18:37:17.910Z,4.25
2023-04-28T18:39:45.096Z,4.78
2023-04-28T18:42:12.296Z,4.85
2023-04-28T18:44:39.470Z,5.30
2023-04-28T18:47:06.853Z,5.70
2023-04-28T18:49:34.554Z,6.45
2023-04-28T18:52:03.517Z,6.85
2023-04-28T18:54:31.152Z,6.25
2023-04-28T18:56:58.385Z,7.82
2023-04-28T18:59:26.382Z,6.15
2023-04-28T19:01:53.460Z,8.88
2023-04-28T19:04:21.785Z,8.25
2023-04-28T19:06:49.315Z,6.50
2023-04-28T19:09:17.012Z,7.10
2023-04-28T19:11:44.151Z,6.38
2023-04-28T19:14:11.316Z,6.28
2023-04-28T19:16:38.713Z,5.65
2023-04-28T19:19:08.224Z,6.78
2023-04-28T19:21:41.478Z,7.10
2023-04-28T19:24:08.655Z,7.60
2023-04-28T19:26:35.797Z,6.93
2023-04-28T19:29:02.889Z,6.88
2023-04-28T19:31:30.086Z,7.50
2023-04-28T19:33:58.104Z,8.57
2023-04-28T19:36:25.513Z,7.50
2023-04-28T19:38:52.952Z,8.80
2023-04-28T19:41:20.770Z,10.60
2023-04-28T19:43:47.999Z,12.43
2023-04-28T19:46:16.395Z,13.55
2023-04-28T19:48:45.860Z,15.02
2023-04-28T19:51:14.194Z,20.65
2023-04-28T19:53:41.350Z,19.92
2023-04-28T19:56:10.133Z,21.88
2023-04-28T19:58:37.692Z,17.63
2023-04-28T20:01:07.048Z,17.13
2023-04-28T20:03:34.874Z,15.02
2023-04-28T20:06:02.184Z,16.42
2023-04-28T20:08:29.503Z,15.32
2023-04-28T20:10:56.590Z,14.32
2023-04-28T20:13:24.100Z,17.35
2023-04-28T20:15:51.626Z,16.70
2023-04-28T20:18:18.835Z,17.90
2023-04-28T20:20:46.057Z,16.30
2023-04-28T20:23:13.177Z,13.77
2023-04-28T20:25:41.240Z,15.23
2023-04-28T20:28:08.404Z,18.15
2023-04-28T20:30:35.875Z,16.83
2023-04-28T20:33:03.607Z,19.52
2023-04-28T20:35:30.767Z,20.40
2023-04-28T20:37:58.450Z,20.65
2023-04-28T20:40:25.743Z,29.88
2023-04-28T20:42:52.890Z,16.17
2023-04-28T20:45:20.045Z,19.15
2023-04-28T20:47:47.396Z,17.38
2023-04-28T20:50:15.556Z,23.50
2023-04-28T20:52:42.688Z,15.05
2023-04-28T20:55:11.412Z,16.83
2023-04-28T20:57:38.536Z,14.15
2023-04-28T21:00:06.949Z,13.68
2023-04-28T21:02:34.153Z,14.25
2023-04-28T21:05:01.777Z,12.25
2023-04-28T21:07:28.910Z,13.45
2023-04-28T21:09:56.034Z,13.57
2023-04-28T21:12:23.190Z,16.40
2023-04-28T21:14:50.349Z,15.82
2023-04-28T21:17:17.417Z,14.55
2023-04-28T21:19:44.554Z,15.43
2023-04-28T21:22:11.676Z,17.30
2023-04-28T21:24:39.000Z,16.67
2023-04-28T21:27:06.092Z,15.38
2023-04-28T21:29:34.457Z,14.95
2023-04-28T21:32:01.619Z,15.77
2023-04-28T21:34:28.789Z,20.58
2023-04-28T21:36:55.901Z,16.75
2023-04-28T21:39:23.222Z,14.45
2023-04-28T21:41:50.402Z,15.43
2023-04-28T21:44:17.557Z,16.50
2023-04-28T21:46:44.638Z,17.92
2023-04-28T21:49:11.987Z,15.00
2023-04-28T21:51:42.141Z,16.40
2023-04-28T21:54:09.612Z,19.35
2023-04-28T21:56:36.838Z,15.55
2023-04-28T21:59:04.200Z,17.33
2023-04-28T22:01:32.018Z,17.65
2023-04-28T22:03:59.491Z,17.23
2023-04-28T22:06:27.325Z,19.00
2023-04-28T22:08:54.420Z,16.30
2023-04-28T22:11:21.544Z,15.35
2023-04-28T22:13:48.703Z,11.73
2023-04-28T22:16:16.235Z,10.48
2023-04-28T22:18:43.380Z,10.07
2023-04-28T22:21:11.194Z,10.50
2023-04-28T22:23:38.358Z,10.77
2023-04-28T22:26:05.672Z,9.45
2023-04-28T22:28:33.141Z,9.98
2023-04-28T22:31:00.422Z,9.38
2023-04-28T22:33:27.530Z,9.43
2023-04-28T22:35:54.615Z,8.85
2023-04-28T22:38:21.874Z,7.93
2023-04-28T22:40:48.957Z,8.27
2023-04-28T22:43:16.096Z,6.88
2023-04-28T22:45:46.662Z,7.50
2023-04-28T22:48:14.316Z,7.22
2023-04-28T22:50:41.571Z,7.15
2023-04-28T22:53:09.348Z,6.93
2023-04-28T22:55:36.768Z,7.20
2023-04-28T22:58:03.871Z,7.38
2023-04-28T23:00:30.968Z,7.55
2023-04-28T23:02:58.124Z,7.03
2023-04-28T23:05:25.393Z,6.90
2023-04-28T23:07:52.503Z,7.85
2023-04-28T23:10:19.658Z,7.72
2023-04-28T23:12:46.862Z,8.13
2023-04-28T23:15:13.976Z,7.88
2023-04-28T23:17:42.020Z,8.23
2023-04-28T23:20:09.368Z,8.35
2023-04-28T23:22:36.449Z,7.38
2023-04-28T23:25:04.314Z,7.32
2023-04-28T23:27:31.467Z,7.35
2023-04-28T23:29:58.588Z,7.78
2023-04-28T23:32:25.786Z,7.65
2023-04-28T23:34:53.632Z,7.35
2023-04-28T23:37:20.771Z,7.60
2023-04-28T23:39:47.902Z,7.63
2023-04-28T23:42:15.002Z,7.35
2023-04-28T23:44:42.106Z,7.10
2023-04-28T23:47:09.272Z,7.82
2023-04-28T23:49:36.380Z,7.00
2023-04-28T23:52:03.925Z,6.72
2023-04-28T23:54:31.080Z,6.70
2023-04-28T23:56:58.179Z,7.30
2023-04-28T23:59:25.648Z,6.68
